Search for airport 
image banner adimage banner adimage banner ad
image banner ad

4CL7 - Inyo County Sheriff Search&Rescue

Located in Bishop, United States

ICAO - 4CL7, IATA -

Data provided by Airmate  

General information

Coordinates: N37°21'56" W118°22'3"
Elevation is 4120 feet MSL.
Magnetic variation is 15° East
View others Airports in California

Operational data

Special qualification required
Current time UTC:
Current local time:
Weather at : KBIH - Bishop ( 1 km )
METAR: KBIH 150856Z AUTO 14012KT 10SM CLR 26/M06 A2999 RMK AO2 SLP090 T02561056 50001
TAF: KBIH 150901Z 1509/1606 14012KT P6SM SCT250 FM151200 33007KT P6SM SCT250 FM151700 17012G22KT P6SM FEW250 FM152300 24015G25KT P6SM FEW250 FM160400 34007KT P6SM FEW250
View NOTAMs / SUP AIP / TFR affecting this airport [VIEW]
Communications frequencies: [VIEW]

Runways:

Airport contact information

Address: Bishop United States

Satellite view of 4CL7